Time;durP1;ratioP1;P1;durP2;ratioP2;P2;SDS_P1;SDS_P2;PMS_P1;PMS_P2;Temp;Humidity;BMP_temperature;BMP_pressure;BME280_temperature;BME280_humidity;BME280_pressure;Samples;Min_cycle;Max_cycle;Signal;HPM_P1;HPM_P2
2022/12/01 00:00:35;;;;;;;;;;;;;;;10.21;77.38;102065.84;5072655;28;19923;-88
2022/12/01 00:03:03;;;;;;;;;;;;;;;10.29;76.69;102050.78;5094359;28;19936;-88
2022/12/01 00:05:44;;;;;;;;;;;;;;;10.24;77.20;102042.56;5091342;28;19950;-88
2022/12/01 00:08:18;;;;;;;;;;;;;;;10.22;77.11;102053.69;5094916;28;20001;-90
2022/12/01 00:10:45;;;;;;;;;;;;;;;10.21;77.25;102059.72;5112608;28;19911;-89
2022/12/01 00:13:12;;;;;;;;;;;;;;;10.23;77.25;102060.75;5095491;28;19916;-90
2022/12/01 00:15:45;;;;;;;;;;;;;;;10.23;77.00;102060.75;5084500;28;19918;-90
2022/12/01 00:18:14;;;;;;;;;;;;;;;10.20;77.26;102066.63;5063756;28;19917;-90
2022/12/01 00:20:49;;;;;;;;;;;;;;;10.22;77.02;102067.66;5066323;28;19930;-89
2022/12/01 00:23:18;;;;;;;;;;;;;;;10.25;76.95;102065.28;5078486;28;19938;-90
2022/12/01 00:26:03;;;;;;;;;;;;;;;10.19;77.26;102068.34;5071957;28;19925;-89
2022/12/01 00:28:31;;;;;;;;;;;;;;;10.22;77.02;102069.34;5082069;28;20021;-88
2022/12/01 00:30:56;;;;;;;;;;;;;;;10.23;77.04;102064.25;5079242;28;20396;-88
2022/12/01 00:33:23;;;;;;;;;;;;;;;10.24;76.71;102057.34;5068224;28;19920;-88
2022/12/01 00:35:58;;;;;;;;;;;;;;;10.26;76.90;102053.13;5073910;28;20012;-87
2022/12/01 00:38:26;;;;;;;;;;;;;;;10.19;77.00;102057.00;5069340;28;19969;-89
2022/12/01 00:40:51;;;;;;;;;;;;;;;10.22;77.03;102064.13;5069549;28;20309;-89
2022/12/01 00:43:16;;;;;;;;;;;;;;;10.17;77.09;102059.47;5065802;28;19916;-88
2022/12/01 00:45:43;;;;;;;;;;;;;;;10.23;76.46;102047.69;5088717;28;20320;-90
2022/12/01 00:48:08;;;;;;;;;;;;;;;10.22;76.51;102057.22;5084732;28;20496;-89
2022/12/01 00:53:36;;;;;;;;;;;;;;;10.18;76.43;102058.69;5080221;28;19931;-86
2022/12/01 00:56:02;;;;;;;;;;;;;;;10.22;76.55;102057.22;5091232;28;19924;-87
2022/12/01 00:58:27;;;;;;;;;;;;;;;10.18;76.89;102047.31;5114112;28;19946;-90
2022/12/01 01:00:57;;;;;;;;;;;;;;;10.20;76.37;102056.19;5071904;28;20018;-90
2022/12/01 01:03:23;;;;;;;;;;;;;;;10.24;76.34;102046.88;5083603;28;19974;-89
2022/12/01 01:05:48;;;;;;;;;;;;;;;10.27;76.18;102036.69;5093385;28;19924;-89
2022/12/01 01:08:14;;;;;;;;;;;;;;;10.23;76.69;102040.78;5080208;28;19965;-89
2022/12/01 01:10:47;;;;;;;;;;;;;;;10.17;76.73;102022.03;5072242;28;19993;-90
2022/12/01 01:13:14;;;;;;;;;;;;;;;10.22;76.35;102032.81;5067385;28;19924;-89
2022/12/01 01:15:40;;;;;;;;;;;;;;;10.18;76.52;102027.38;5084495;28;20379;-88
2022/12/01 01:20:57;;;;;;;;;;;;;;;10.26;76.46;102030.53;5082427;28;19923;-89
2022/12/01 01:23:22;;;;;;;;;;;;;;;10.21;76.04;102026.69;5072101;28;20379;-89
2022/12/01 01:25:49;;;;;;;;;;;;;;;10.10;76.45;102015.44;5060823;28;20009;-89
2022/12/01 01:28:14;;;;;;;;;;;;;;;10.13;76.66;102012.16;5082533;28;19946;-90
2022/12/01 01:30:40;;;;;;;;;;;;;;;10.10;76.47;102006.72;5059665;28;20355;-90
2022/12/01 01:33:05;;;;;;;;;;;;;;;10.04;76.41;102014.06;5075466;28;20355;-90
2022/12/01 01:35:31;;;;;;;;;;;;;;;10.08;76.36;102009.19;5085291;28;19955;-89
2022/12/01 01:37:57;;;;;;;;;;;;;;;10.15;76.40;102011.47;5074054;28;19916;-89
2022/12/01 01:40:22;;;;;;;;;;;;;;;10.13;76.31;102010.44;5081541;28;19927;-90
2022/12/01 01:42:48;;;;;;;;;;;;;;;10.12;76.24;102011.25;5078899;28;20389;-90
2022/12/01 01:45:16;;;;;;;;;;;;;;;10.17;76.30;102003.75;5071068;28;20011;-90
2022/12/01 01:47:44;;;;;;;;;;;;;;;10.08;76.54;102006.59;5076926;28;20056;-89
2022/12/01 01:50:11;;;;;;;;;;;;;;;10.14;75.88;102001.81;5075164;28;19912;-89
2022/12/01 01:53:09;;;;;;;;;;;;;;;10.15;76.40;102001.03;5077466;28;20287;-90
2022/12/01 01:55:45;;;;;;;;;;;;;;;10.11;75.93;101996.34;5028911;28;19921;-90
2022/12/01 01:58:11;;;;;;;;;;;;;;;10.13;76.40;102001.69;5024143;28;19917;-90
2022/12/01 02:00:45;;;;;;;;;;;;;;;10.13;76.25;101999.09;5054281;28;20370;-90
2022/12/01 02:03:12;;;;;;;;;;;;;;;10.07;76.42;101993.41;5058195;28;19917;-90
2022/12/01 02:05:38;;;;;;;;;;;;;;;10.04;76.30;101987.97;5034435;28;19956;-90
2022/12/01 02:08:11;;;;;;;;;;;;;;;10.09;76.42;101995.34;5036080;28;19917;-90
2022/12/01 02:10:55;;;;;;;;;;;;;;;10.13;75.83;101988.66;5051329;28;19999;-89
2022/12/01 02:13:37;;;;;;;;;;;;;;;10.17;76.12;101975.94;5042742;28;19921;-91
2022/12/01 02:16:05;;;;;;;;;;;;;;;10.15;76.04;101974.91;5018890;28;19921;-91
2022/12/01 02:18:49;;;;;;;;;;;;;;;10.11;75.89;101982.41;5037637;28;19913;-89
2022/12/01 02:21:22;;;;;;;;;;;;;;;10.09;76.02;101969.22;5037571;28;19917;-89
2022/12/01 02:24:06;;;;;;;;;;;;;;;10.08;76.22;101958.72;5047346;28;20003;-89
2022/12/01 02:26:38;;;;;;;;;;;;;;;10.04;76.12;101962.78;5033489;28;19917;-90
2022/12/01 02:29:04;;;;;;;;;;;;;;;9.97;75.50;101948.34;5049642;28;20314;-90
2022/12/01 02:31:42;;;;;;;;;;;;;;;10.06;76.15;101955.06;5042461;28;19991;-89
2022/12/01 02:34:26;;;;;;;;;;;;;;;10.07;76.05;101952.56;5034989;28;19916;-89
2022/12/01 02:36:53;;;;;;;;;;;;;;;10.16;75.96;101968.91;5033303;28;19920;-89
2022/12/01 02:39:25;;;;;;;;;;;;;;;10.17;76.09;101969.81;5037800;28;20390;-90
2022/12/01 02:41:58;;;;;;;;;;;;;;;10.16;75.93;101968.91;5035194;28;20536;-89
2022/12/01 02:44:31;;;;;;;;;;;;;;;10.18;75.90;101988.22;5045739;28;19947;-89
2022/12/01 02:46:59;;;;;;;;;;;;;;;10.19;75.92;101976.97;5026713;28;20029;-91
2022/12/01 02:49:27;;;;;;;;;;;;;;;10.19;76.06;101989.13;5039655;28;20045;-89
2022/12/01 02:51:53;;;;;;;;;;;;;;;10.16;76.06;101974.13;5036977;28;20004;-90
2022/12/01 02:54:20;;;;;;;;;;;;;;;10.15;76.21;101982.75;5076215;28;19950;-89
2022/12/01 02:56:45;;;;;;;;;;;;;;;10.16;76.08;101978.47;5077257;28;19913;-88
2022/12/01 02:59:11;;;;;;;;;;;;;;;10.09;75.88;101981.38;5074517;28;20305;-88
2022/12/01 03:01:55;;;;;;;;;;;;;;;10.15;75.68;101974.91;5068781;28;20282;-88
2022/12/01 03:04:24;;;;;;;;;;;;;;;10.11;75.79;101965.03;5094528;28;20441;-88
2022/12/01 03:06:51;;;;;;;;;;;;;;;10.09;75.88;101966.63;5077546;28;20015;-88
2022/12/01 03:09:26;;;;;;;;;;;;;;;10.11;75.74;101954.59;5091378;28;19939;-89
2022/12/01 03:12:12;;;;;;;;;;;;;;;10.09;75.96;101965.72;5101794;28;19970;-89
2022/12/01 03:14:50;;;;;;;;;;;;;;;10.17;76.04;101959.38;5080836;28;20415;-90
2022/12/01 03:17:18;;;;;;;;;;;;;;;10.17;75.83;101955.06;5073782;28;19920;-89
2022/12/01 03:19:49;;;;;;;;;;;;;;;10.13;75.53;101947.78;5064594;28;19916;-90
2022/12/01 03:22:25;;;;;;;;;;;;;;;10.14;75.92;101947.00;5071120;28;19916;-91
2022/12/01 03:25:05;;;;;;;;;;;;;;;10.06;75.95;101955.06;5076792;28;20360;-90
2022/12/01 03:27:32;;;;;;;;;;;;;;;10.15;75.89;101948.81;5074079;28;20306;-89
2022/12/01 03:29:59;;;;;;;;;;;;;;;10.13;75.91;101947.78;5074570;28;20031;-89
2022/12/01 03:32:33;;;;;;;;;;;;;;;10.19;75.78;101950.84;5062906;28;20386;-89
2022/12/01 03:35:09;;;;;;;;;;;;;;;10.09;75.74;101953.56;5075163;28;19920;-89
2022/12/01 03:37:39;;;;;;;;;;;;;;;10.21;75.61;101942.25;5070883;28;19989;-89
2022/12/01 03:40:07;;;;;;;;;;;;;;;10.16;75.59;101944.53;5074858;28;19983;-89
2022/12/01 03:43:08;;;;;;;;;;;;;;;10.13;76.02;101933.84;5074802;28;19920;-90
2022/12/01 03:45:58;;;;;;;;;;;;;;;10.15;75.74;101934.88;5032733;28;19925;-90
2022/12/01 03:48:53;;;;;;;;;;;;;;;10.18;75.59;101937.69;5085630;28;19916;-90
2022/12/01 03:54:26;;;;;;;;;;;;;;;10.20;75.89;101962.19;5090731;28;19927;-90
2022/12/01 03:56:55;;;;;;;;;;;;;;;10.21;75.58;101957.91;5096357;28;19912;-89
2022/12/01 03:59:27;;;;;;;;;;;;;;;10.12;76.20;101956.44;5085187;28;19913;-90
2022/12/01 04:02:08;;;;;;;;;;;;;;;10.17;75.90;101968.09;5061217;28;19916;-89
2022/12/01 04:05:09;;;;;;;;;;;;;;;10.19;76.05;101968.22;5063821;28;19928;-92
2022/12/01 04:07:38;;;;;;;;;;;;;;;10.18;75.94;101958.56;5086071;28;19916;-90
2022/12/01 04:10:07;;;;;;;;;;;;;;;10.17;75.83;101951.56;5074230;28;20015;-91
2022/12/01 04:12:35;;;;;;;;;;;;;;;10.16;76.12;101944.53;5088502;28;19915;-89
2022/12/01 04:18:35;;;;;;;;;;;;;;;10.19;75.79;101926.47;5075312;28;19926;-91
2022/12/01 04:21:03;;;;;;;;;;;;;;;10.13;76.18;101944.28;5085237;28;20279;-91
2022/12/01 04:26:19;;;;;;;;;;;;;;;10.08;75.82;101943.03;5076584;28;19931;-89
2022/12/01 04:28:45;;;;;;;;;;;;;;;10.08;75.99;101938.72;5076428;28;19920;-90
2022/12/01 04:31:13;;;;;;;;;;;;;;;10.09;76.02;101931.78;5072652;28;20329;-89
2022/12/01 04:33:45;;;;;;;;;;;;;;;10.09;76.07;101942.22;5078760;28;20360;-89
2022/12/01 04:36:35;;;;;;;;;;;;;;;10.07;75.82;101936.00;5073751;28;20007;-90
2022/12/01 04:39:02;;;;;;;;;;;;;;;10.10;75.86;101950.19;5073289;28;20316;-88
2022/12/01 04:41:27;;;;;;;;;;;;;;;10.09;75.74;101931.78;5074291;28;19963;-88
2022/12/01 04:43:54;;;;;;;;;;;;;;;10.03;75.84;101947.88;5072721;28;20523;-89
2022/12/01 04:46:19;;;;;;;;;;;;;;;10.04;76.25;101944.50;5058944;28;20431;-90
2022/12/01 04:48:47;;;;;;;;;;;;;;;10.04;76.35;101964.47;5063603;28;19916;-89
2022/12/01 04:51:25;;;;;;;;;;;;;;;10.07;76.13;101964.69;5077802;28;19916;-90
2022/12/01 04:54:22;;;;;;;;;;;;;;;10.05;75.89;101971.50;5060606;28;19978;-90
2022/12/01 04:56:49;;;;;;;;;;;;;;;10.03;75.74;101965.25;5048206;28;19928;-90
2022/12/01 04:59:16;;;;;;;;;;;;;;;10.04;76.02;101973.22;5040907;28;19918;-89
2022/12/01 05:01:41;;;;;;;;;;;;;;;10.08;75.88;101962.22;5033760;28;19913;-90
2022/12/01 05:04:13;;;;;;;;;;;;;;;10.05;76.08;101968.91;5065847;28;20297;-90
2022/12/01 05:06:43;;;;;;;;;;;;;;;10.03;75.95;101962.66;5026314;28;20009;-90
2022/12/01 05:09:09;;;;;;;;;;;;;;;10.08;75.83;101972.66;5040850;28;20299;-89
2022/12/01 05:11:35;;;;;;;;;;;;;;;10.10;75.90;101978.00;5050004;28;19986;-89
2022/12/01 05:14:01;;;;;;;;;;;;;;;10.08;75.72;101972.66;5030749;28;19917;-88
2022/12/01 05:16:28;;;;;;;;;;;;;;;10.09;75.77;101979.66;5032342;28;20310;-88
2022/12/01 05:21:54;;;;;;;;;;;;;;;10.07;75.69;101973.44;5012573;28;20370;-91
2022/12/01 05:24:21;;;;;;;;;;;;;;;10.05;76.07;101974.13;5035736;28;19979;-89
2022/12/01 05:26:48;;;;;;;;;;;;;;;10.06;75.78;101974.25;5050573;28;22203;-88
2022/12/01 05:29:19;;;;;;;;;;;;;;;10.11;75.97;101964.13;5044546;28;19913;-88
2022/12/01 05:31:45;;;;;;;;;;;;;;;10.06;75.97;101965.50;5033849;28;20509;-90
2022/12/01 05:34:10;;;;;;;;;;;;;;;10.04;75.97;101974.91;5043761;28;19917;-88
2022/12/01 05:36:36;;;;;;;;;;;;;;;10.05;75.74;101953.22;5027320;28;19917;-88
2022/12/01 05:39:01;;;;;;;;;;;;;;;10.01;75.68;101962.53;5016251;28;20386;-89
2022/12/01 05:41:28;;;;;;;;;;;;;;;10.01;75.75;101964.22;5043391;28;19980;-88
2022/12/01 05:43:59;;;;;;;;;;;;;;;9.98;76.19;101954.47;5047905;28;19983;-90
2022/12/01 05:46:27;;;;;;;;;;;;;;;10.03;75.87;101960.03;5045686;28;19917;-90
2022/12/01 05:48:52;;;;;;;;;;;;;;;10.01;75.75;101948.56;5025352;28;19982;-88
2022/12/01 05:51:19;;;;;;;;;;;;;;;9.89;75.72;101946.88;5050734;28;19916;-90
2022/12/01 05:53:48;;;;;;;;;;;;;;;9.89;75.50;101953.81;5055546;28;20398;-89
2022/12/01 05:56:13;;;;;;;;;;;;;;;9.85;75.59;101952.66;5081235;28;20608;-90
2022/12/01 05:58:40;;;;;;;;;;;;;;;9.85;75.33;101943.91;5067462;28;20097;-87
2022/12/01 06:01:07;;;;;;;;;;;;;;;9.93;75.61;101961.97;5060943;28;19916;-89
2022/12/01 06:03:34;;;;;;;;;;;;;;;9.86;75.62;101959.66;5096712;28;19922;-90
2022/12/01 06:06:02;;;;;;;;;;;;;;;9.94;75.61;101962.88;5068841;28;19916;-89
2022/12/01 06:08:28;;;;;;;;;;;;;;;9.89;75.39;101952.09;5069788;28;19916;-89
2022/12/01 06:10:55;;;;;;;;;;;;;;;9.84;75.41;101952.53;5054912;28;19959;-90
2022/12/01 06:13:20;;;;;;;;;;;;;;;9.85;75.60;101954.34;5065553;28;19924;-93
2022/12/01 06:15:54;;;;;;;;;;;;;;;9.84;75.21;101939.47;5066943;28;19920;-87
2022/12/01 06:18:20;;;;;;;;;;;;;;;9.73;75.17;101929.13;5075811;28;19927;-88
2022/12/01 06:20:46;;;;;;;;;;;;;;;9.75;75.28;101943.19;5072718;28;19912;-87
2022/12/01 06:23:11;;;;;;;;;;;;;;;9.81;75.22;101932.34;5075082;28;20351;-88
2022/12/01 06:25:37;;;;;;;;;;;;;;;9.82;75.54;101928.94;5079365;28;19927;-88
2022/12/01 06:28:02;;;;;;;;;;;;;;;9.75;75.33;101922.34;5063133;28;19917;-88
2022/12/01 06:30:29;;;;;;;;;;;;;;;9.76;75.50;101905.91;5069931;28;19938;-88
2022/12/01 06:32:55;;;;;;;;;;;;;;;9.64;75.36;101918.00;5058755;28;19924;-88
2022/12/01 06:35:21;;;;;;;;;;;;;;;9.64;75.41;101898.84;5069686;28;19917;-88
2022/12/01 06:37:47;;;;;;;;;;;;;;;9.60;75.74;101900.31;5067332;28;19956;-87
2022/12/01 06:40:15;;;;;;;;;;;;;;;9.60;75.52;101886.38;5060022;28;19928;-87
2022/12/01 06:42:42;;;;;;;;;;;;;;;9.58;75.62;101889.75;5074307;28;19920;-89
2022/12/01 06:45:07;;;;;;;;;;;;;;;9.53;75.94;101885.91;5067057;28;19920;-89
2022/12/01 06:47:33;;;;;;;;;;;;;;;9.55;75.80;101883.41;5075572;28;19970;-87
2022/12/01 06:49:59;;;;;;;;;;;;;;;9.55;75.97;101886.94;5067199;28;19922;-87
2022/12/01 06:52:25;;;;;;;;;;;;;;;9.50;75.76;101883.09;5074580;28;19916;-83
2022/12/01 06:54:51;;;;;;;;;;;;;;;9.58;75.91;101901.91;5079498;28;20007;-85
2022/12/01 06:57:16;;;;;;;;;;;;;;;9.56;75.41;101874.78;5092570;28;19952;-86
2022/12/01 06:59:41;;;;;;;;;;;;;;;9.66;75.58;101899.88;5111734;28;19908;-88
2022/12/01 07:02:09;;;;;;;;;;;;;;;9.62;75.69;101916.97;5089242;28;19917;-85
2022/12/01 07:04:34;;;;;;;;;;;;;;;9.58;75.63;101917.53;5106644;28;19930;-86
2022/12/01 07:07:10;;;;;;;;;;;;;;;9.59;75.44;101916.75;5081550;28;19916;-90
2022/12/01 07:09:35;;;;;;;;;;;;;;;9.65;75.59;101925.06;5084559;28;19916;-88
2022/12/01 07:12:00;;;;;;;;;;;;;;;9.68;75.64;101938.31;5078452;28;19966;-92
2022/12/01 07:14:44;;;;;;;;;;;;;;;9.82;75.46;101941.06;5089147;28;19912;-93
2022/12/01 07:17:31;;;;;;;;;;;;;;;9.80;75.24;101943.56;5065742;28;20329;-90
2022/12/01 07:20:17;;;;;;;;;;;;;;;9.81;74.79;101953.19;5089341;28;20326;-93
2022/12/01 07:23:15;;;;;;;;;;;;;;;9.85;74.80;101955.25;5078547;28;19917;-92
2022/12/01 07:25:45;;;;;;;;;;;;;;;9.84;74.95;101953.47;5074157;28;20037;-92
2022/12/01 07:28:33;;;;;;;;;;;;;;;9.88;74.99;101947.66;5074350;28;19916;-91
2022/12/01 07:31:05;;;;;;;;;;;;;;;9.87;75.25;101947.56;5080084;28;19916;-90
2022/12/01 07:33:35;;;;;;;;;;;;;;;9.83;75.10;101967.28;5076885;28;20389;-92
2022/12/01 07:36:02;;;;;;;;;;;;;;;9.80;75.11;101961.84;5075772;28;20008;-91
2022/12/01 07:38:37;;;;;;;;;;;;;;;9.82;75.16;101962.88;5058329;28;20515;-91
2022/12/01 07:41:14;;;;;;;;;;;;;;;9.86;75.35;101953.56;5071287;28;19916;-89
2022/12/01 07:43:53;;;;;;;;;;;;;;;9.90;74.80;101953.88;5077827;28;20504;-90
2022/12/01 07:49:21;;;;;;;;;;;;;;;9.85;75.51;101952.66;5079121;28;19919;-93
2022/12/01 07:51:52;;;;;;;;;;;;;;;9.85;75.33;101968.31;5071876;28;19913;-94
2022/12/01 07:54:24;;;;;;;;;;;;;;;9.88;75.41;101955.47;5067932;28;19962;-92
2022/12/01 07:56:55;;;;;;;;;;;;;;;9.90;75.25;101955.59;5076854;28;19970;-92
2022/12/01 07:59:24;;;;;;;;;;;;;;;9.90;75.09;101972.16;5063940;28;19912;-92
2022/12/01 08:05:21;;;;;;;;;;;;;;;9.94;75.27;101968.09;5085191;28;19950;-88
2022/12/01 08:07:53;;;;;;;;;;;;;;;9.87;75.06;101977.16;5080230;28;19916;-91
2022/12/01 08:10:21;;;;;;;;;;;;;;;9.87;75.24;101968.44;5076377;28;19912;-93
2022/12/01 08:13:06;;;;;;;;;;;;;;;9.92;75.28;101967.06;5060594;28;19920;-93
2022/12/01 08:15:51;;;;;;;;;;;;;;;9.89;75.35;101977.28;5079310;28;19916;-92
2022/12/01 08:18:19;;;;;;;;;;;;;;;9.85;75.44;101976.13;5084412;28;20384;-90
2022/12/01 08:20:45;;;;;;;;;;;;;;;9.86;75.31;101961.38;5070892;28;19969;-88
2022/12/01 08:23:12;;;;;;;;;;;;;;;9.85;75.08;101960.47;5078275;28;19919;-89
2022/12/01 08:25:37;;;;;;;;;;;;;;;9.77;75.38;101956.38;5070690;28;19989;-83
2022/12/01 08:28:04;;;;;;;;;;;;;;;9.79;75.48;101971.34;5077000;28;20397;-83
2022/12/01 08:30:29;;;;;;;;;;;;;;;9.82;75.05;101959.31;5077737;28;19956;-88
2022/12/01 08:32:58;;;;;;;;;;;;;;;9.79;75.35;101960.91;5073398;28;19978;-88
2022/12/01 08:35:25;;;;;;;;;;;;;;;9.83;75.16;101967.28;5067355;28;19912;-88
2022/12/01 08:37:51;;;;;;;;;;;;;;;9.92;74.74;101938.34;5074629;28;21139;-88
2022/12/01 08:40:21;;;;;;;;;;;;;;;9.86;74.72;101954.44;5072528;28;19912;-92
2022/12/01 08:43:15;;;;;;;;;;;;;;;9.83;74.90;101956.84;5072407;28;19920;-90
2022/12/01 08:45:51;;;;;;;;;;;;;;;9.82;75.43;101960.25;5073755;28;20394;-90
2022/12/01 08:48:18;;;;;;;;;;;;;;;9.87;75.22;101958.88;5072543;28;20266;-91
2022/12/01 08:50:43;;;;;;;;;;;;;;;9.84;74.97;101947.31;5066517;28;19961;-92
2022/12/01 08:53:20;;;;;;;;;;;;;;;9.85;75.01;101929.16;5073825;28;20361;-90
2022/12/01 08:55:45;;;;;;;;;;;;;;;9.85;75.17;101936.09;5066478;28;19951;-90
2022/12/01 08:58:12;;;;;;;;;;;;;;;9.79;75.06;101920.88;5070484;28;19988;-90
2022/12/01 09:00:46;;;;;;;;;;;;;;;9.81;75.23;101919.28;5078338;28;19923;-90
2022/12/01 09:03:12;;;;;;;;;;;;;;;9.81;75.53;101918.38;5084527;28;19961;-90
2022/12/01 09:05:45;;;;;;;;;;;;;;;9.83;75.47;101924.63;5081389;28;19915;-90
2022/12/01 09:10:57;;;;;;;;;;;;;;;9.82;75.38;101915.91;5090900;28;19918;-88
2022/12/01 09:13:22;;;;;;;;;;;;;;;9.79;75.35;101908.72;5080481;28;19951;-90
2022/12/01 09:16:14;;;;;;;;;;;;;;;9.83;74.97;101912.50;5102719;28;19948;-89
2022/12/01 09:18:59;;;;;;;;;;;;;;;9.77;75.54;101873.78;5079368;28;19920;-89
2022/12/01 09:21:44;;;;;;;;;;;;;;;9.72;75.62;101883.00;5076954;28;19967;-91
2022/12/01 09:24:39;;;;;;;;;;;;;;;9.73;75.43;101887.41;5067961;28;19919;-89
2022/12/01 09:27:33;;;;;;;;;;;;;;;9.76;75.37;101877.22;5072123;28;19916;-91
2022/12/01 09:30:10;;;;;;;;;;;;;;;9.78;75.09;101859.97;5072485;28;20297;-90
2022/12/01 09:32:53;;;;;;;;;;;;;;;9.79;74.99;101850.44;5069591;28;19970;-93
2022/12/01 09:35:40;;;;;;;;;;;;;;;9.77;75.42;101873.78;5066888;28;19912;-90
2022/12/01 09:38:22;;;;;;;;;;;;;;;9.74;75.42;101865.75;5077116;28;19912;-90
2022/12/01 09:41:17;;;;;;;;;;;;;;;9.75;75.40;101851.00;5073221;28;19999;-90
2022/12/01 09:46:51;;;;;;;;;;;;;;;9.79;75.11;101847.84;5072991;28;19965;-93
2022/12/01 09:49:23;;;;;;;;;;;;;;;9.79;75.11;101861.78;5068987;28;20365;-93
2022/12/01 09:51:49;;;;;;;;;;;;;;;9.73;74.93;101839.53;5074929;28;20362;-92
2022/12/01 09:54:16;;;;;;;;;;;;;;;9.70;75.21;101853.28;5084691;28;19920;-92
2022/12/01 09:59:44;;;;;;;;;;;;;;;9.71;75.25;101825.47;5079239;28;19969;-93
2022/12/01 10:02:23;;;;;;;;;;;;;;;9.73;75.54;101823.91;5090800;28;19991;-92
2022/12/01 10:07:52;;;;;;;;;;;;;;;9.83;74.84;101848.97;5077300;28;19959;-91
2022/12/01 10:10:39;;;;;;;;;;;;;;;9.75;75.23;101837.97;5103874;28;19911;-94
2022/12/01 10:13:22;;;;;;;;;;;;;;;9.72;75.29;101846.47;5086048;28;19942;-92
2022/12/01 10:19:11;;;;;;;;;;;;;;;9.70;75.09;101857.59;5094750;28;20365;-93
2022/12/01 10:22:05;;;;;;;;;;;;;;;9.69;75.08;101845.31;5059581;28;20068;-92
2022/12/01 10:24:50;;;;;;;;;;;;;;;9.64;75.17;101842.38;5078550;28;20397;-93
2022/12/01 10:27:22;;;;;;;;;;;;;;;9.71;74.98;101820.25;5066933;28;19916;-93
2022/12/01 10:29:53;;;;;;;;;;;;;;;9.68;74.98;101835.69;5075464;28;20437;-91
2022/12/01 10:32:22;;;;;;;;;;;;;;;9.63;74.92;101847.47;5076410;28;19923;-93
2022/12/01 10:35:05;;;;;;;;;;;;;;;9.68;75.04;101846.13;5073896;28;19917;-92
2022/12/01 10:37:33;;;;;;;;;;;;;;;9.73;75.05;101861.31;5063112;28;19916;-94
2022/12/01 10:39:58;;;;;;;;;;;;;;;9.73;75.27;101856.09;5064888;28;19919;-94
2022/12/01 10:42:33;;;;;;;;;;;;;;;9.71;75.32;101865.50;5074314;28;19917;-91
2022/12/01 10:45:01;;;;;;;;;;;;;;;9.72;75.33;101859.50;5076836;28;19939;-92
2022/12/01 10:47:30;;;;;;;;;;;;;;;9.70;75.46;101870.63;5076326;28;20003;-92
2022/12/01 10:52:58;;;;;;;;;;;;;;;9.75;74.92;101871.88;5077186;28;19918;-93
2022/12/01 10:55:25;;;;;;;;;;;;;;;9.73;75.25;101866.53;5063737;28;19920;-92
2022/12/01 10:57:58;;;;;;;;;;;;;;;9.74;75.19;101850.09;5078131;28;19919;-91
2022/12/01 11:00:37;;;;;;;;;;;;;;;9.69;75.34;101860.97;5074492;28;19912;-92
2022/12/01 11:03:06;;;;;;;;;;;;;;;9.80;74.83;101860.09;5074844;28;20370;-93
2022/12/01 11:05:35;;;;;;;;;;;;;;;9.69;75.06;101866.19;5106303;28;19916;-89
2022/12/01 11:08:01;;;;;;;;;;;;;;;9.69;75.38;101874.91;5104668;28;19912;-90
2022/12/01 11:10:43;;;;;;;;;;;;;;;9.73;74.82;101874.34;5080199;28;19966;-96
2022/12/01 11:13:27;;;;;;;;;;;;;;;9.75;75.13;101877.97;5065537;28;19913;-95
2022/12/01 11:19:06;;;;;;;;;;;;;;;9.77;74.90;101896.38;5075644;28;20373;-95
2022/12/01 11:21:33;;;;;;;;;;;;;;;9.74;74.92;101893.53;5068573;28;19912;-96
2022/12/01 11:26:51;;;;;;;;;;;;;;;9.73;75.27;101879.56;5080209;28;20427;-96
2022/12/01 11:29:30;;;;;;;;;;;;;;;9.68;75.00;101869.59;5062536;28;19912;-96
2022/12/01 11:31:56;;;;;;;;;;;;;;;9.74;75.22;101867.47;5221475;22;19959;-96
2022/12/01 11:34:33;;;;;;;;;;;;;;;9.73;74.88;101861.31;5054610;28;19928;-95
2022/12/01 11:37:04;;;;;;;;;;;;;;;9.75;74.84;101867.56;5039714;28;19940;-96
2022/12/01 11:39:37;;;;;;;;;;;;;;;9.70;75.05;101858.50;5055078;28;19925;-94
2022/12/01 11:42:14;;;;;;;;;;;;;;;9.67;75.13;101855.66;5037124;28;19917;-95
2022/12/01 11:44:45;;;;;;;;;;;;;;;9.62;75.01;101857.00;5042796;28;19929;-92
2022/12/01 11:47:17;;;;;;;;;;;;;;;9.70;74.86;101854.97;5043202;28;20387;-90
2022/12/01 11:50:18;;;;;;;;;;;;;;;9.68;74.86;101857.47;5044691;28;20613;-91
2022/12/01 11:55:50;;;;;;;;;;;;;;;9.71;74.99;101872.44;5035718;28;19979;-91
2022/12/01 11:58:26;;;;;;;;;;;;;;;9.77;74.54;101865.97;5050759;28;19957;-91
2022/12/01 12:00:56;;;;;;;;;;;;;;;9.72;74.59;101858.63;5063232;28;19921;-90
2022/12/01 12:03:34;;;;;;;;;;;;;;;9.71;75.02;101857.69;5067254;28;19916;-91
2022/12/01 12:09:10;;;;;;;;;;;;;;;9.71;75.02;101859.38;5069842;28;19927;-92
2022/12/01 12:11:55;;;;;;;;;;;;;;;9.65;75.03;101844.22;5055757;28;19917;-92
2022/12/01 12:14:33;;;;;;;;;;;;;;;9.65;75.13;101840.66;5049836;28;19918;-91
2022/12/01 12:20:05;;;;;;;;;;;;;;;9.68;75.23;101823.56;5035442;28;19917;-93
2022/12/01 12:22:49;;;;;;;;;;;;;;;9.65;74.61;101823.34;5045821;28;20318;-91
2022/12/01 12:25:38;;;;;;;;;;;;;;;9.69;75.16;101819.25;5037457;28;19929;-91
2022/12/01 12:31:29;;;;;;;;;;;;;;;9.69;75.35;101827.97;5033098;28;19928;-92
2022/12/01 12:34:13;;;;;;;;;;;;;;;9.65;75.29;101830.25;5044266;28;19920;-91
2022/12/01 12:36:42;;;;;;;;;;;;;;;9.69;75.00;101833.19;5050000;28;19925;-92
2022/12/01 12:39:28;;;;;;;;;;;;;;;9.68;74.82;101839.22;5056219;28;19921;-92
2022/12/01 12:41:58;;;;;;;;;;;;;;;9.67;74.79;101832.19;5039557;28;19917;-90
2022/12/01 12:44:33;;;;;;;;;;;;;;;9.62;75.12;101843.06;5044242;28;19922;-89
2022/12/01 12:47:08;;;;;;;;;;;;;;;9.63;75.16;101858.84;5040992;28;19920;-91
2022/12/01 12:49:40;;;;;;;;;;;;;;;9.63;75.09;101860.50;5052727;28;19917;-90
2022/12/01 12:52:07;;;;;;;;;;;;;;;9.68;75.22;101856.56;5049341;28;20089;-89
2022/12/01 12:54:48;;;;;;;;;;;;;;;9.67;74.98;101866.09;5062803;28;19921;-89
2022/12/01 12:57:28;;;;;;;;;;;;;;;9.65;75.23;101869.34;5042274;28;19925;-90
2022/12/01 13:00:04;;;;;;;;;;;;;;;9.71;74.92;101870.72;5031597;28;19920;-90
2022/12/01 13:02:32;;;;;;;;;;;;;;;9.66;74.95;101873.81;5053189;28;20314;-89
2022/12/01 13:05:00;;;;;;;;;;;;;;;9.69;75.09;101874.00;5054390;28;20054;-89
2022/12/01 13:07:41;;;;;;;;;;;;;;;9.64;75.26;101880.59;5043496;28;19974;-89
2022/12/01 13:10:09;;;;;;;;;;;;;;;9.64;74.93;101878.88;5036606;28;19923;-90
2022/12/01 13:12:37;;;;;;;;;;;;;;;9.68;75.28;101883.53;5056504;28;19917;-90
2022/12/01 13:15:13;;;;;;;;;;;;;;;9.68;75.17;101870.50;5036822;28;19924;-90
2022/12/01 13:17:40;;;;;;;;;;;;;;;9.68;75.30;101861.78;5062389;28;19921;-91
2022/12/01 13:20:06;;;;;;;;;;;;;;;9.66;75.07;101856.44;5059295;28;20382;-90
2022/12/01 13:22:34;;;;;;;;;;;;;;;9.66;75.05;101837.28;5018679;28;19999;-90
2022/12/01 13:25:01;;;;;;;;;;;;;;;9.58;74.94;101837.59;5032195;28;19948;-90
2022/12/01 13:27:29;;;;;;;;;;;;;;;9.65;75.09;101841.59;5030907;28;19917;-91
2022/12/01 13:29:54;;;;;;;;;;;;;;;9.66;75.29;101832.97;5032707;28;20473;-91
2022/12/01 13:32:25;;;;;;;;;;;;;;;9.62;74.88;101823.09;5046858;28;19921;-89
2022/12/01 13:34:52;;;;;;;;;;;;;;;9.58;75.07;101815.84;5026520;28;19921;-88
2022/12/01 13:37:24;;;;;;;;;;;;;;;9.66;75.23;101806.88;5033249;28;19917;-88
2022/12/01 13:39:55;;;;;;;;;;;;;;;9.68;74.90;101813.13;5035517;28;19956;-90
2022/12/01 13:42:22;;;;;;;;;;;;;;;9.58;75.29;101815.84;5037690;28;19921;-90
2022/12/01 13:45:21;;;;;;;;;;;;;;;9.62;75.15;101817.88;5035913;28;19921;-88
2022/12/01 13:47:53;;;;;;;;;;;;;;;9.65;75.20;101825.03;4980384;28;19918;-89
2022/12/01 13:50:45;;;;;;;;;;;;;;;9.64;74.86;101831.03;4995705;28;20410;-90
2022/12/01 13:53:12;;;;;;;;;;;;;;;9.66;75.23;101827.75;5048084;28;19921;-89
2022/12/01 13:55:56;;;;;;;;;;;;;;;9.64;74.90;101825.84;5037893;28;19921;-90
2022/12/01 13:58:25;;;;;;;;;;;;;;;9.70;74.68;101839.34;5051203;28;19924;-90
2022/12/01 14:01:17;;;;;;;;;;;;;;;9.66;74.96;101835.56;5036259;28;19916;-89
2022/12/01 14:03:50;;;;;;;;;;;;;;;9.65;74.97;101854.66;5075923;28;19924;-89
2022/12/01 14:06:37;;;;;;;;;;;;;;;9.64;75.18;101855.41;5087371;28;19970;-88
2022/12/01 14:09:22;;;;;;;;;;;;;;;9.65;75.15;101844.22;5056121;28;19923;-89